Time;durP1;ratioP1;P1;durP2;ratioP2;P2;SDS_P1;SDS_P2;PMS_P1;PMS_P2;Temp;Humidity;BMP_temperature;BMP_pressure;BME280_temperature;BME280_humidity;BME280_pressure;Samples;Min_cycle;Max_cycle;Signal;HPM_P1;HPM_P2
2023/06/22 00:00:58;;;;;;;24.85;21.75;;;17.20;99.90;;;;;;5055145;28;20037;-66
2023/06/22 00:03:24;;;;;;;19.77;15.70;;;17.10;99.90;;;;;;5054318;28;20045;-66
2023/06/22 00:05:51;;;;;;;24.38;21.88;;;17.10;99.90;;;;;;5054930;28;20045;-66
2023/06/22 00:08:18;;;;;;;24.83;21.20;;;17.10;99.90;;;;;;5055255;28;20049;-66
2023/06/22 00:10:44;;;;;;;23.13;19.30;;;17.10;99.90;;;;;;5036190;28;20049;-66
2023/06/22 00:13:10;;;;;;;23.60;19.75;;;17.10;99.90;;;;;;5037382;28;20548;-66
2023/06/22 00:15:38;;;;;;;21.20;19.00;;;17.10;99.90;;;;;;5037044;28;20052;-66
2023/06/22 00:18:05;;;;;;;23.05;20.33;;;17.10;99.90;;;;;;5036247;28;20067;-66
2023/06/22 00:20:30;;;;;;;25.50;22.85;;;17.00;99.90;;;;;;5053342;28;20043;-66
2023/06/22 00:22:57;;;;;;;25.00;22.15;;;17.00;99.90;;;;;;5036888;28;20037;-66
2023/06/22 00:25:24;;;;;;;27.95;24.95;;;17.00;99.90;;;;;;5036011;28;20049;-66
2023/06/22 00:27:50;;;;;;;30.13;24.73;;;17.00;99.90;;;;;;5035576;28;20403;-67
2023/06/22 00:30:17;;;;;;;26.05;22.67;;;17.00;99.90;;;;;;5054562;28;20382;-66
2023/06/22 00:32:44;;;;;;;31.13;27.05;;;17.00;99.90;;;;;;5035777;28;20033;-66
2023/06/22 00:35:12;;;;;;;23.35;20.88;;;17.00;99.90;;;;;;5036922;28;20079;-66
2023/06/22 00:37:40;;;;;;;25.35;22.02;;;17.00;99.90;;;;;;5054775;28;20041;-66
2023/06/22 00:40:08;;;;;;;21.08;18.85;;;16.90;99.90;;;;;;5036212;28;20037;-66
2023/06/22 00:42:34;;;;;;;21.38;18.75;;;16.90;99.90;;;;;;5054432;28;20047;-66
2023/06/22 00:45:00;;;;;;;27.40;24.33;;;16.80;99.90;;;;;;5054104;28;20445;-66
2023/06/22 00:47:26;;;;;;;19.45;17.45;;;16.80;99.90;;;;;;5053044;28;20048;-66
2023/06/22 00:49:52;;;;;;;29.88;24.30;;;16.80;99.90;;;;;;5036532;28;20060;-66
2023/06/22 00:52:21;;;;;;;26.13;23.02;;;16.80;99.90;;;;;;5036706;28;20048;-66
2023/06/22 00:54:51;;;;;;;25.10;22.52;;;16.70;99.90;;;;;;5053394;28;20473;-66
2023/06/22 00:57:18;;;;;;;25.65;21.95;;;16.70;99.90;;;;;;5054198;28;20453;-66
2023/06/22 00:59:45;;;;;;;21.88;18.60;;;16.70;99.90;;;;;;5035249;28;20045;-66
2023/06/22 01:02:11;;;;;;;24.30;19.98;;;16.70;99.90;;;;;;5054416;28;20048;-66
2023/06/22 01:04:38;;;;;;;22.30;19.67;;;16.70;99.90;;;;;;5054039;28;20068;-66
2023/06/22 01:07:07;;;;;;;20.65;18.45;;;16.80;99.90;;;;;;5053501;28;20102;-66
2023/06/22 01:09:37;;;;;;;27.85;24.63;;;16.70;99.90;;;;;;5036171;28;20099;-66
2023/06/22 01:12:07;;;;;;;28.23;25.33;;;16.70;99.90;;;;;;5054860;28;20041;-66
2023/06/22 01:14:55;;;;;;;27.33;24.52;;;16.70;99.90;;;;;;5052753;28;20080;-66
2023/06/22 01:17:22;;;;;;;28.60;24.42;;;16.80;99.90;;;;;;5053842;28;20119;-66
2023/06/22 01:19:56;;;;;;;28.83;24.65;;;16.70;99.90;;;;;;5053689;28;20037;-66
2023/06/22 01:22:30;;;;;;;29.07;26.10;;;16.80;99.90;;;;;;5052859;28;20041;-66
2023/06/22 01:25:26;;;;;;;26.92;23.40;;;16.70;99.90;;;;;;5035756;28;20280;-66
2023/06/22 01:28:00;;;;;;;28.48;25.50;;;16.80;99.90;;;;;;5052711;28;20080;-66
2023/06/22 01:30:28;;;;;;;28.95;25.00;;;16.80;99.90;;;;;;5035431;28;20518;-66
2023/06/22 01:32:58;;;;;;;29.45;25.48;;;16.70;99.90;;;;;;5035802;28;20051;-66
2023/06/22 01:35:25;;;;;;;24.77;22.10;;;16.70;99.90;;;;;;5034846;28;20403;-66
2023/06/22 01:37:51;;;;;;;29.08;26.02;;;16.70;99.90;;;;;;5053141;28;20037;-66
2023/06/22 01:40:19;;;;;;;25.50;22.80;;;16.70;99.90;;;;;;5035756;28;20437;-67
2023/06/22 01:42:45;;;;;;;27.25;23.63;;;16.60;99.90;;;;;;5052202;28;20600;-66
2023/06/22 01:45:12;;;;;;;27.20;24.38;;;16.60;99.90;;;;;;5053541;28;20105;-66
2023/06/22 01:47:38;;;;;;;29.70;24.45;;;16.60;99.90;;;;;;5035573;28;20043;-66
2023/06/22 01:50:05;;;;;;;27.13;24.33;;;16.60;99.90;;;;;;5034516;28;20053;-66
2023/06/22 01:52:33;;;;;;;24.42;21.67;;;16.50;99.90;;;;;;5052984;28;20083;-66
2023/06/22 01:54:59;;;;;;;27.45;21.05;;;16.50;99.90;;;;;;5052951;28;20452;-66
2023/06/22 01:57:26;;;;;;;29.08;26.00;;;16.50;99.90;;;;;;5034166;28;20527;-66
2023/06/22 02:00:02;;;;;;;25.38;22.70;;;16.40;99.90;;;;;;5035004;28;20032;-66
2023/06/22 02:02:36;;;;;;;25.52;22.85;;;16.30;99.90;;;;;;5054120;28;20099;-66
2023/06/22 02:05:06;;;;;;;27.80;24.87;;;16.30;99.90;;;;;;5053982;28;20545;-66
2023/06/22 02:07:38;;;;;;;29.13;24.40;;;16.30;99.90;;;;;;5072879;28;20889;-66
2023/06/22 02:10:07;;;;;;;27.88;24.85;;;16.30;99.90;;;;;;5072114;28;20044;-66
2023/06/22 02:12:35;;;;;;;29.45;26.27;;;16.20;99.90;;;;;;5054609;28;20044;-66
2023/06/22 02:15:01;;;;;;;33.40;25.17;;;16.20;99.90;;;;;;5072429;28;20114;-66
2023/06/22 02:17:28;;;;;;;26.50;23.15;;;16.20;99.90;;;;;;5053951;28;20036;-66
2023/06/22 02:19:53;;;;;;;33.53;27.08;;;16.20;99.90;;;;;;5054959;28;20400;-66
2023/06/22 02:22:19;;;;;;;39.13;28.33;;;16.10;99.90;;;;;;5054493;28;20040;-66
2023/06/22 02:24:45;;;;;;;30.77;27.15;;;16.10;99.90;;;;;;5053918;28;20032;-66
2023/06/22 02:27:10;;;;;;;29.98;24.92;;;16.00;99.90;;;;;;5054950;28;20127;-66
2023/06/22 02:29:37;;;;;;;28.55;25.40;;;15.90;99.90;;;;;;5054274;28;20053;-66
2023/06/22 02:32:03;;;;;;;26.92;24.33;;;15.90;99.90;;;;;;5039175;28;20401;-66
2023/06/22 02:34:29;;;;;;;22.98;19.95;;;15.80;99.90;;;;;;5034520;28;20497;-66
2023/06/22 02:36:55;;;;;;;22.75;20.35;;;15.80;99.90;;;;;;5034482;28;20068;-66
2023/06/22 02:39:22;;;;;;;25.13;20.48;;;15.80;99.90;;;;;;5033593;28;20036;-66
2023/06/22 02:41:53;;;;;;;24.48;20.92;;;15.70;99.90;;;;;;5051991;28;20043;-66
2023/06/22 02:44:19;;;;;;;24.13;21.73;;;15.60;99.90;;;;;;5052254;28;20033;-66
2023/06/22 02:46:46;;;;;;;17.25;15.45;;;15.50;99.90;;;;;;5051466;28;20144;-66
2023/06/22 02:49:12;;;;;;;20.13;18.13;;;15.50;99.90;;;;;;5052085;28;20120;-66
2023/06/22 02:51:44;;;;;;;21.35;19.27;;;15.40;99.90;;;;;;5052020;28;20125;-66
2023/06/22 02:54:10;;;;;;;18.52;16.73;;;15.40;99.90;;;;;;5051631;28;20037;-66
2023/06/22 02:56:36;;;;;;;20.80;18.80;;;15.30;99.90;;;;;;5033856;28;20449;-66
2023/06/22 02:59:02;;;;;;;20.10;18.30;;;15.30;99.90;;;;;;5052035;28;20095;-66
2023/06/22 03:01:30;;;;;;;19.10;17.17;;;15.30;99.90;;;;;;5022589;28;20041;-66
2023/06/22 03:03:56;;;;;;;20.25;18.35;;;15.40;99.90;;;;;;5047336;28;20045;-66
2023/06/22 03:06:23;;;;;;;18.55;16.85;;;15.40;99.90;;;;;;5053185;28;20040;-66
2023/06/22 03:08:52;;;;;;;22.08;19.98;;;15.40;99.90;;;;;;5050683;28;20091;-66
2023/06/22 03:11:18;;;;;;;24.98;18.98;;;15.30;99.90;;;;;;5033837;28;20120;-66
2023/06/22 03:13:45;;;;;;;28.10;20.02;;;15.30;99.90;;;;;;5051134;28;20116;-66
2023/06/22 03:16:11;;;;;;;21.80;18.80;;;15.30;99.90;;;;;;5052098;28;20040;-66
2023/06/22 03:18:36;;;;;;;24.17;20.58;;;15.30;99.90;;;;;;5033980;28;20052;-66
2023/06/22 03:21:02;;;;;;;37.85;19.52;;;15.20;99.90;;;;;;5038478;28;20040;-66
2023/06/22 03:23:28;;;;;;;22.05;18.83;;;15.20;99.90;;;;;;5053736;28;20041;-66
2023/06/22 03:25:55;;;;;;;20.65;18.73;;;15.10;99.90;;;;;;5037326;28;20045;-66
2023/06/22 03:28:21;;;;;;;22.23;20.00;;;15.10;99.90;;;;;;5049173;28;20501;-66
2023/06/22 03:30:47;;;;;;;23.10;19.05;;;15.10;99.90;;;;;;5051454;28;20060;-66
2023/06/22 03:33:13;;;;;;;22.67;20.48;;;15.10;99.90;;;;;;5050513;28;20048;-66
2023/06/22 03:35:39;;;;;;;22.30;19.90;;;15.10;99.90;;;;;;5051135;28;20048;-66
2023/06/22 03:38:04;;;;;;;20.25;18.30;;;15.00;99.90;;;;;;5050319;28;20486;-66
2023/06/22 03:40:30;;;;;;;21.80;19.65;;;15.00;99.90;;;;;;5051502;28;20048;-66
2023/06/22 03:42:56;;;;;;;22.20;20.10;;;15.00;99.90;;;;;;5029898;28;20076;-66
2023/06/22 03:45:21;;;;;;;21.80;19.60;;;15.00;99.90;;;;;;5031855;28;20399;-66
2023/06/22 03:47:47;;;;;;;22.75;20.63;;;15.00;99.90;;;;;;5030268;28;20048;-66
2023/06/22 03:50:14;;;;;;;21.75;19.65;;;15.00;99.90;;;;;;5013315;28;20050;-66
2023/06/22 03:52:40;;;;;;;22.95;20.65;;;15.00;99.90;;;;;;5030138;28;20056;-66
2023/06/22 03:55:07;;;;;;;22.58;20.48;;;15.00;99.90;;;;;;5031941;28;20037;-66
2023/06/22 03:57:33;;;;;;;21.45;19.30;;;15.00;99.90;;;;;;5029701;28;20541;-66
2023/06/22 03:59:58;;;;;;;23.20;20.92;;;15.00;99.90;;;;;;5030444;28;20051;-66
2023/06/22 04:02:25;;;;;;;23.58;21.38;;;15.10;99.90;;;;;;5044560;28;20113;-66
2023/06/22 04:04:50;;;;;;;26.92;24.33;;;15.10;99.90;;;;;;5032883;28;20041;-66
2023/06/22 04:07:17;;;;;;;24.88;22.48;;;15.10;99.90;;;;;;5035230;28;20087;-66
2023/06/22 04:09:43;;;;;;;25.83;23.23;;;15.20;99.90;;;;;;5033029;28;20042;-66
2023/06/22 04:12:09;;;;;;;26.65;23.17;;;15.20;99.90;;;;;;5034966;28;20044;-66
2023/06/22 04:14:35;;;;;;;26.63;23.80;;;15.20;99.90;;;;;;5034688;28;20034;-66
2023/06/22 04:17:01;;;;;;;24.08;21.67;;;15.30;99.90;;;;;;5034385;28;20080;-66
2023/06/22 04:19:27;;;;;;;24.48;20.67;;;15.30;99.90;;;;;;5034929;28;20034;-66
2023/06/22 04:21:53;;;;;;;23.35;21.15;;;15.30;99.90;;;;;;5034788;28;20049;-66
2023/06/22 04:24:18;;;;;;;25.80;23.10;;;15.30;99.90;;;;;;5032704;28;20069;-66
2023/06/22 04:26:46;;;;;;;27.58;24.42;;;15.30;99.90;;;;;;5034847;28;20386;-66
2023/06/22 04:29:13;;;;;;;25.70;23.10;;;15.40;99.90;;;;;;5036944;28;20068;-66
2023/06/22 04:31:39;;;;;;;24.80;22.23;;;15.40;99.90;;;;;;5042055;28;20485;-66
2023/06/22 04:34:06;;;;;;;26.45;23.73;;;15.40;99.90;;;;;;5074867;28;20047;-66
2023/06/22 04:36:41;;;;;;;23.17;20.80;;;15.40;99.90;;;;;;5056321;28;20211;-66
2023/06/22 04:39:11;;;;;;;24.02;21.45;;;15.40;99.90;;;;;;5056009;28;20071;-66
2023/06/22 04:41:44;;;;;;;31.15;23.02;;;15.50;99.90;;;;;;5055638;28;20120;-66
2023/06/22 04:44:11;;;;;;;31.98;22.55;;;15.50;99.90;;;;;;5057049;28;20043;-66
2023/06/22 04:46:38;;;;;;;33.97;23.52;;;15.50;99.90;;;;;;5055812;28;20080;-66
2023/06/22 04:49:12;;;;;;;35.90;22.50;;;15.50;99.90;;;;;;5074352;28;20044;-66
2023/06/22 04:51:40;;;;;;;35.53;20.48;;;15.50;99.90;;;;;;5074081;28;20118;-66
2023/06/22 04:54:06;;;;;;;42.92;20.80;;;15.50;99.90;;;;;;5073405;28;20441;-66
2023/06/22 04:56:33;;;;;;;43.40;20.55;;;15.50;99.90;;;;;;5056063;28;20113;-66
2023/06/22 04:58:59;;;;;;;52.80;23.48;;;15.40;99.90;;;;;;5055293;28;20044;-66
2023/06/22 05:01:25;;;;;;;25.83;23.10;;;15.40;99.90;;;;;;5071323;28;20048;-66
2023/06/22 05:03:55;;;;;;;27.00;22.40;;;15.50;99.90;;;;;;5051277;28;20103;-66
2023/06/22 05:06:24;;;;;;;23.85;21.38;;;15.60;99.90;;;;;;5035307;28;20082;-66
2023/06/22 05:08:57;;;;;;;24.15;21.70;;;15.60;99.90;;;;;;5019344;28;20080;-66
2023/06/22 05:11:24;;;;;;;24.42;21.90;;;15.80;99.90;;;;;;5053439;28;20045;-66
2023/06/22 05:13:50;;;;;;;25.98;23.35;;;15.90;99.90;;;;;;5052873;28;20554;-66
2023/06/22 05:16:16;;;;;;;27.90;25.20;;;16.00;99.90;;;;;;5073632;28;20123;-66
2023/06/22 05:18:43;;;;;;;26.00;23.13;;;16.10;99.90;;;;;;5073611;28;20044;-66
2023/06/22 05:21:09;;;;;;;26.88;20.95;;;16.20;99.90;;;;;;5055398;28;20489;-66
2023/06/22 05:23:34;;;;;;;24.05;21.55;;;16.40;99.90;;;;;;5054247;28;20119;-66
2023/06/22 05:26:00;;;;;;;29.67;25.95;;;16.50;99.90;;;;;;5073761;28;20496;-66
2023/06/22 05:28:26;;;;;;;29.98;26.88;;;16.80;99.90;;;;;;5072376;28;20078;-66
2023/06/22 05:30:52;;;;;;;27.70;24.58;;;16.90;99.90;;;;;;5055508;28;20060;-66
2023/06/22 05:33:17;;;;;;;32.35;27.40;;;17.10;99.90;;;;;;5073165;28;20044;-66
2023/06/22 05:35:43;;;;;;;32.83;29.25;;;17.30;99.90;;;;;;5072649;28;20040;-66
2023/06/22 05:38:09;;;;;;;31.23;27.10;;;17.50;99.90;;;;;;5039104;28;20428;-66
2023/06/22 05:40:34;;;;;;;32.53;28.10;;;17.60;99.90;;;;;;5038887;28;20374;-66
2023/06/22 05:43:01;;;;;;;32.63;29.13;;;17.80;99.90;;;;;;5072637;28;20059;-66
2023/06/22 05:45:27;;;;;;;34.25;28.98;;;18.00;99.90;;;;;;5073208;28;20115;-66
2023/06/22 05:47:53;;;;;;;32.50;28.52;;;18.10;99.90;;;;;;5054984;28;20123;-66
2023/06/22 05:50:18;;;;;;;31.58;25.85;;;18.30;99.90;;;;;;5054578;28;20040;-66
2023/06/22 05:52:44;;;;;;;30.48;26.63;;;18.40;99.90;;;;;;5064785;28;20087;-66
2023/06/22 05:55:10;;;;;;;33.65;30.13;;;18.40;99.90;;;;;;5041966;28;20052;-66
2023/06/22 05:57:35;;;;;;;32.95;27.38;;;18.60;99.90;;;;;;5052694;28;20040;-66
2023/06/22 06:00:02;;;;;;;31.85;28.45;;;18.70;99.90;;;;;;5053135;28;20460;-66
2023/06/22 06:02:28;;;;;;;29.15;26.05;;;18.80;99.90;;;;;;5035252;28;20040;-66
2023/06/22 06:04:54;;;;;;;30.63;25.63;;;18.80;99.90;;;;;;5035045;28;20037;-66
2023/06/22 06:07:19;;;;;;;28.77;25.67;;;18.90;99.90;;;;;;5052716;28;20164;-66
2023/06/22 06:09:45;;;;;;;30.33;27.08;;;19.00;99.90;;;;;;5051956;28;20122;-66
2023/06/22 06:12:11;;;;;;;28.83;25.63;;;19.10;99.90;;;;;;5052669;28;20116;-66
2023/06/22 06:14:36;;;;;;;31.08;26.40;;;19.20;99.90;;;;;;5034939;28;20474;-66
2023/06/22 06:17:02;;;;;;;27.42;24.55;;;19.30;99.90;;;;;;5034008;28;20032;-66
2023/06/22 06:19:28;;;;;;;30.25;25.75;;;19.30;99.90;;;;;;5052717;28;20086;-66
2023/06/22 06:21:53;;;;;;;29.90;26.77;;;19.30;99.90;;;;;;5018255;28;20040;-66
2023/06/22 06:24:19;;;;;;;31.88;27.77;;;19.20;99.90;;;;;;5033311;28;20036;-67
2023/06/22 06:26:45;;;;;;;30.15;27.05;;;19.20;99.90;;;;;;5052716;28;20123;-66
2023/06/22 06:29:10;;;;;;;29.95;26.85;;;19.20;99.90;;;;;;5040508;28;20055;-66
2023/06/22 06:31:36;;;;;;;27.73;24.85;;;19.20;99.90;;;;;;5037945;28;20045;-66
2023/06/22 06:34:02;;;;;;;30.75;27.50;;;19.20;99.90;;;;;;5052421;28;20041;-66
2023/06/22 06:36:27;;;;;;;28.95;25.95;;;19.30;99.90;;;;;;5034612;28;20127;-66
2023/06/22 06:38:54;;;;;;;31.27;26.25;;;19.40;99.90;;;;;;5051566;28;20037;-66
2023/06/22 06:41:21;;;;;;;29.83;26.63;;;19.40;99.90;;;;;;5052138;28;20060;-66
2023/06/22 06:43:46;;;;;;;30.85;27.52;;;19.50;99.90;;;;;;5017759;28;20098;-66
2023/06/22 06:46:12;;;;;;;31.85;28.08;;;19.60;99.90;;;;;;5017936;28;20032;-66
2023/06/22 06:48:38;;;;;;;30.52;27.08;;;19.70;99.90;;;;;;5031760;28;20082;-66
2023/06/22 06:51:03;;;;;;;31.55;28.05;;;19.70;99.90;;;;;;5031236;28;20073;-66
2023/06/22 06:53:29;;;;;;;29.20;26.20;;;19.70;99.90;;;;;;5049516;28;20060;-66
2023/06/22 06:55:55;;;;;;;30.67;27.55;;;19.70;99.90;;;;;;5040480;28;20061;-66
2023/06/22 06:58:22;;;;;;;30.67;27.45;;;19.80;99.90;;;;;;5031090;28;20524;-68
2023/06/22 07:00:49;;;;;;;29.77;26.75;;;19.80;99.90;;;;;;5048852;28;20494;-66
2023/06/22 07:03:15;;;;;;;30.77;27.15;;;19.80;99.90;;;;;;5031386;28;20276;-68
2023/06/22 07:05:41;;;;;;;30.92;27.77;;;19.80;99.90;;;;;;5048384;28;20132;-68
2023/06/22 07:08:07;;;;;;;31.58;28.10;;;19.80;99.90;;;;;;5041454;28;20041;-67
2023/06/22 07:10:33;;;;;;;30.92;27.30;;;19.90;99.90;;;;;;5033477;28;20401;-68
2023/06/22 07:12:59;;;;;;;29.40;26.30;;;20.10;99.90;;;;;;5057634;28;20242;-68
2023/06/22 07:15:25;;;;;;;29.95;26.92;;;20.10;99.90;;;;;;5086336;28;20051;-68
2023/06/22 07:17:51;;;;;;;27.45;24.42;;;20.20;99.90;;;;;;5070407;28;20096;-68
2023/06/22 07:20:19;;;;;;;28.00;24.38;;;20.30;99.90;;;;;;5069933;28;20046;-68
2023/06/22 07:22:45;;;;;;;30.58;25.92;;;20.40;99.90;;;;;;5070244;28;20051;-67
2023/06/22 07:25:14;;;;;;;31.65;28.30;;;20.50;99.90;;;;;;5073579;28;20044;-68
2023/06/22 07:27:56;;;;;;;27.77;24.67;;;20.40;99.90;;;;;;5049856;28;20839;-67
2023/06/22 07:30:22;;;;;;;27.98;25.15;;;20.50;99.90;;;;;;5043230;28;20541;-67
2023/06/22 07:32:48;;;;;;;24.90;22.30;;;20.70;99.90;;;;;;5043390;28;20044;-67
2023/06/22 07:35:16;;;;;;;27.63;24.33;;;20.80;99.90;;;;;;5050187;28;20390;-67
2023/06/22 07:37:42;;;;;;;23.30;20.90;;;20.90;99.90;;;;;;5051127;28;20490;-67
2023/06/22 07:40:09;;;;;;;21.92;19.58;;;21.10;99.90;;;;;;5040490;28;20119;-67
2023/06/22 07:42:35;;;;;;;22.90;19.05;;;21.20;99.90;;;;;;5034424;28;20040;-67
2023/06/22 07:45:01;;;;;;;19.67;17.60;;;21.20;99.90;;;;;;5045796;28;20052;-66
2023/06/22 07:47:28;;;;;;;17.15;15.35;;;21.30;99.90;;;;;;5037434;28;20053;-67
2023/06/22 07:49:55;;;;;;;18.20;16.13;;;21.30;99.90;;;;;;5081686;28;20051;-67
2023/06/22 07:52:21;;;;;;;18.50;15.63;;;21.40;99.90;;;;;;5074492;28;20052;-66
2023/06/22 07:54:47;;;;;;;19.17;17.17;;;21.40;99.90;;;;;;5091880;28;20431;-66
2023/06/22 07:57:13;;;;;;;18.80;15.38;;;21.50;99.90;;;;;;5072148;28;20032;-66
2023/06/22 07:59:38;;;;;;;21.83;16.27;;;21.60;99.90;;;;;;5041908;28;20127;-64
2023/06/22 08:02:05;;;;;;;21.65;15.15;;;21.60;99.90;;;;;;5061697;28;20040;-65
2023/06/22 08:04:33;;;;;;;17.65;15.68;;;21.70;99.90;;;;;;5051916;28;20124;-64
2023/06/22 08:06:59;;;;;;;18.73;16.67;;;21.80;99.90;;;;;;5053985;28;20048;-64
2023/06/22 08:09:25;;;;;;;17.13;15.32;;;21.90;99.90;;;;;;5071630;28;20162;-64
2023/06/22 08:11:50;;;;;;;18.60;14.77;;;21.90;99.90;;;;;;5071837;28;20036;-64
2023/06/22 08:14:16;;;;;;;18.05;14.43;;;22.00;99.90;;;;;;5070694;28;20581;-64
2023/06/22 08:16:42;;;;;;;14.18;11.20;;;22.10;99.90;;;;;;5053510;28;20409;-64
2023/06/22 08:19:08;;;;;;;15.93;12.75;;;22.10;99.90;;;;;;5072547;28;20118;-64
2023/06/22 08:21:34;;;;;;;14.38;12.88;;;22.20;99.90;;;;;;5054083;28;20079;-64
2023/06/22 08:23:59;;;;;;;15.93;13.05;;;22.20;99.90;;;;;;5036370;28;20052;-65
2023/06/22 08:26:25;;;;;;;13.25;10.27;;;22.30;99.90;;;;;;5057437;28;20047;-64
2023/06/22 08:28:51;;;;;;;13.50;10.63;;;22.40;99.90;;;;;;5074048;28;20059;-64
2023/06/22 08:31:16;;;;;;;15.82;10.38;;;22.50;99.90;;;;;;5072695;28;20408;-64
2023/06/22 08:33:45;;;;;;;13.82;10.98;;;22.50;99.90;;;;;;5067561;28;20029;-64
2023/06/22 08:36:13;;;;;;;13.27;10.98;;;22.50;99.90;;;;;;5048265;28;20060;-65
2023/06/22 08:38:39;;;;;;;14.75;12.05;;;22.60;99.90;;;;;;5033453;28;20055;-64
2023/06/22 08:41:04;;;;;;;14.00;11.40;;;22.60;99.90;;;;;;5060119;28;20402;-64
2023/06/22 08:43:30;;;;;;;14.10;11.85;;;22.70;99.90;;;;;;5034336;28;20037;-64
2023/06/22 08:45:56;;;;;;;15.35;12.02;;;22.80;99.90;;;;;;5031946;28;20110;-65
2023/06/22 08:48:21;;;;;;;18.83;13.63;;;22.80;99.90;;;;;;5069998;28;20052;-64
2023/06/22 08:50:47;;;;;;;15.70;12.52;;;22.70;99.90;;;;;;5051840;28;20127;-64
2023/06/22 08:53:13;;;;;;;14.40;12.27;;;22.70;99.90;;;;;;5059781;28;20440;-64
2023/06/22 08:55:38;;;;;;;16.48;13.43;;;22.80;99.90;;;;;;5065702;28;20052;-64
2023/06/22 08:58:04;;;;;;;15.90;13.95;;;22.90;99.90;;;;;;5046852;28;20037;-65
2023/06/22 09:00:32;;;;;;;16.27;13.88;;;23.00;99.90;;;;;;5060091;28;20123;-65
2023/06/22 09:02:58;;;;;;;14.40;12.05;;;23.10;99.90;;;;;;5056807;28;20028;-64
2023/06/22 09:05:27;;;;;;;14.15;11.82;;;23.20;99.90;;;;;;5064743;28;20044;-65
2023/06/22 09:07:56;;;;;;;15.68;12.50;;;23.30;99.90;;;;;;5047633;28;20037;-65
2023/06/22 09:10:21;;;;;;;17.00;12.70;;;23.40;99.90;;;;;;5046836;28;20040;-66
2023/06/22 09:12:47;;;;;;;15.25;12.20;;;23.50;99.90;;;;;;5038970;28;20095;-66
2023/06/22 09:15:13;;;;;;;15.48;12.70;;;23.50;99.90;;;;;;5038448;28;20040;-67
2023/06/22 09:17:38;;;;;;;15.57;13.13;;;23.50;99.90;;;;;;5054025;28;20037;-66
2023/06/22 09:20:05;;;;;;;16.35;12.63;;;23.50;99.90;;;;;;5018919;28;20124;-67
2023/06/22 09:22:32;;;;;;;15.40;12.82;;;23.50;99.90;;;;;;5036323;28;20474;-65
2023/06/22 09:24:59;;;;;;;18.13;12.88;;;23.40;99.90;;;;;;5047676;28;20116;-65
2023/06/22 09:27:25;;;;;;;15.05;12.30;;;23.50;99.90;;;;;;5051782;28;20041;-65
2023/06/22 09:29:50;;;;;;;17.45;12.20;;;23.50;99.90;;;;;;5053301;28;20045;-65
2023/06/22 09:32:16;;;;;;;15.85;11.75;;;23.70;99.90;;;;;;5035494;28;20044;-65
2023/06/22 09:34:43;;;;;;;13.40;10.20;;;23.70;99.90;;;;;;5052752;28;20118;-65
2023/06/22 09:37:09;;;;;;;14.50;10.27;;;23.80;99.90;;;;;;5053548;28;20045;-65
2023/06/22 09:39:36;;;;;;;14.50;11.55;;;23.90;99.90;;;;;;5018969;28;20502;-65
2023/06/22 09:42:01;;;;;;;15.50;10.98;;;24.00;99.90;;;;;;5034440;28;20043;-65
2023/06/22 09:44:27;;;;;;;14.75;11.18;;;24.10;99.90;;;;;;5053041;28;20029;-66
2023/06/22 09:46:53;;;;;;;13.57;11.88;;;24.30;99.90;;;;;;5053018;28;20045;-65
2023/06/22 09:49:18;;;;;;;16.23;12.43;;;24.30;99.90;;;;;;5052514;28;20068;-67
2023/06/22 09:51:44;;;;;;;14.68;12.43;;;24.30;99.90;;;;;;5046238;28;20041;-65
2023/06/22 09:54:10;;;;;;;13.27;11.38;;;24.40;99.90;;;;;;5035218;28;20090;-65
2023/06/22 09:56:37;;;;;;;12.98;11.10;;;24.40;99.90;;;;;;5052174;28;20044;-65
2023/06/22 09:59:03;;;;;;;14.20;12.05;;;24.60;99.90;;;;;;5052776;28;20037;-64
2023/06/22 10:01:29;;;;;;;14.43;12.05;;;24.60;99.90;;;;;;5034209;28;20421;-65
2023/06/22 10:03:56;;;;;;;12.90;11.43;;;24.60;99.90;;;;;;5034952;28;20086;-65
2023/06/22 10:06:22;;;;;;;15.52;10.65;;;24.50;99.90;;;;;;5052796;28;20547;-65
2023/06/22 10:08:50;;;;;;;13.90;11.52;;;24.60;99.90;;;;;;5034140;28;20033;-65
2023/06/22 10:11:16;;;;;;;12.05;10.75;;;24.60;99.90;;;;;;5052780;28;20033;-64
2023/06/22 10:13:41;;;;;;;14.68;11.50;;;24.70;99.90;;;;;;5052643;28;20048;-65
2023/06/22 10:16:07;;;;;;;12.15;10.93;;;24.70;99.90;;;;;;5051867;28;20394;-65
2023/06/22 10:18:33;;;;;;;13.60;10.05;;;24.70;99.90;;;;;;5034767;28;20102;-65
2023/06/22 10:20:58;;;;;;;10.75;9.65;;;24.70;99.90;;;;;;5018245;28;20044;-65
2023/06/22 10:23:24;;;;;;;10.65;8.50;;;24.70;99.90;;;;;;5033839;28;20132;-65
2023/06/22 10:25:50;;;;;;;11.40;8.25;;;24.60;99.90;;;;;;5052426;28;20124;-65
2023/06/22 10:28:15;;;;;;;11.70;9.07;;;24.50;99.90;;;;;;5052216;28;20136;-65
2023/06/22 10:30:42;;;;;;;14.18;10.88;;;24.60;99.90;;;;;;5033611;28;20084;-65
2023/06/22 10:33:12;;;;;;;12.00;9.50;;;24.60;99.90;;;;;;5018292;28;20548;-65
2023/06/22 10:35:38;;;;;;;12.80;9.65;;;24.60;99.90;;;;;;5052551;28;20133;-65
2023/06/22 10:38:04;;;;;;;11.07;9.02;;;24.80;99.90;;;;;;5033772;28;20036;-65
2023/06/22 10:40:30;;;;;;;10.18;8.55;;;24.80;99.90;;;;;;5034252;28;20095;-65
2023/06/22 10:42:55;;;;;;;9.82;7.32;;;24.80;99.90;;;;;;5034520;28;20045;-65
2023/06/22 10:45:21;;;;;;;9.73;7.15;;;24.90;99.90;;;;;;5033570;28;20125;-65
2023/06/22 10:47:47;;;;;;;11.75;7.75;;;25.10;99.90;;;;;;5052130;28;20482;-65
2023/06/22 10:50:13;;;;;;;10.00;8.73;;;25.30;99.90;;;;;;5034658;28;20041;-66
2023/06/22 10:52:41;;;;;;;10.05;8.05;;;25.20;99.90;;;;;;5033772;28;20045;-65
2023/06/22 10:55:08;;;;;;;10.50;8.27;;;25.10;99.90;;;;;;5052170;28;20124;-66
2023/06/22 10:57:33;;;;;;;11.27;6.75;;;24.80;99.90;;;;;;5033442;28;20086;-66
2023/06/22 10:59:59;;;;;;;8.05;6.32;;;24.80;99.90;;;;;;5034258;28;20056;-66
2023/06/22 11:02:24;;;;;;;10.85;6.60;;;24.80;99.90;;;;;;5034236;28;20073;-66
2023/06/22 11:04:50;;;;;;;9.85;5.53;;;24.80;99.90;;;;;;5051364;28;20540;-65
2023/06/22 11:07:16;;;;;;;7.75;5.22;;;24.80;99.90;;;;;;5033969;28;20040;-65
2023/06/22 11:09:43;;;;;;;8.00;6.20;;;24.80;99.90;;;;;;5051719;28;20045;-66
2023/06/22 11:12:09;;;;;;;8.70;6.35;;;24.80;99.90;;;;;;5050670;28;20045;-66
2023/06/22 11:14:35;;;;;;;11.50;6.43;;;24.90;99.90;;;;;;5033893;28;20037;-66
2023/06/22 11:17:00;;;;;;;10.63;7.00;;;25.00;99.90;;;;;;5051904;28;20508;-65
2023/06/22 11:19:26;;;;;;;9.20;6.43;;;25.00;99.90;;;;;;5051027;28;20467;-65
2023/06/22 11:21:52;;;;;;;8.05;6.03;;;25.00;99.90;;;;;;5051706;28;20478;-66
2023/06/22 11:24:17;;;;;;;7.32;4.85;;;25.00;99.90;;;;;;5051757;28;20052;-66
2023/06/22 11:26:43;;;;;;;7.00;5.05;;;25.00;99.90;;;;;;5050994;28;20051;-66
2023/06/22 11:29:09;;;;;;;6.68;3.95;;;25.00;99.90;;;;;;5051840;28;20094;-66
2023/06/22 11:31:35;;;;;;;6.82;5.15;;;24.90;99.90;;;;;;5033771;28;20504;-66
2023/06/22 11:34:01;;;;;;;8.00;5.50;;;24.90;99.90;;;;;;5033124;28;20076;-66
2023/06/22 11:36:27;;;;;;;7.15;4.45;;;24.90;99.90;;;;;;5051492;28;20520;-66
2023/06/22 11:38:53;;;;;;;7.20;4.95;;;24.90;99.90;;;;;;5051466;28;20037;-66
2023/06/22 11:41:19;;;;;;;8.30;4.28;;;24.70;99.90;;;;;;5050628;28;20120;-66
2023/06/22 11:43:44;;;;;;;6.40;4.22;;;24.70;99.90;;;;;;5017177;28;20069;-65
2023/06/22 11:46:10;;;;;;;9.55;4.68;;;24.80;99.90;;;;;;5033983;28;20036;-66
2023/06/22 11:48:36;;;;;;;6.40;4.20;;;24.80;99.90;;;;;;5033265;28;20037;-66
2023/06/22 11:51:03;;;;;;;6.88;4.28;;;24.80;99.90;;;;;;5051344;28;20041;-65
2023/06/22 11:53:29;;;;;;;7.15;3.63;;;24.80;99.90;;;;;;5033618;28;20121;-66
2023/06/22 11:55:55;;;;;;;8.55;4.32;;;24.70;99.90;;;;;;5050433;28;20470;-66
2023/06/22 11:58:21;;;;;;;6.68;3.90;;;24.60;99.90;;;;;;5033741;28;20041;-66
2023/06/22 12:00:48;;;;;;;6.13;3.50;;;24.40;99.90;;;;;;5016901;28;20079;-66
2023/06/22 12:03:14;;;;;;;7.43;3.90;;;24.40;99.90;;;;;;5033324;28;20044;-66
2023/06/22 12:05:40;;;;;;;5.70;3.00;;;24.50;99.90;;;;;;5033611;28;20076;-65
2023/06/22 12:08:06;;;;;;;6.03;3.10;;;24.50;99.40;;;;;;5050804;28;20048;-66
2023/06/22 12:10:32;;;;;;;6.43;2.80;;;24.50;99.40;;;;;;5051060;28;20041;-66
2023/06/22 12:12:59;;;;;;;5.95;2.83;;;24.70;99.50;;;;;;5033450;28;20044;-66
2023/06/22 12:15:26;;;;;;;4.53;2.78;;;24.60;98.90;;;;;;5050511;28;20045;-66
2023/06/22 12:17:51;;;;;;;5.03;2.95;;;24.50;99.10;;;;;;5033497;28;20501;-66
2023/06/22 12:20:17;;;;;;;5.35;2.78;;;24.30;98.90;;;;;;5033494;28;20045;-66
2023/06/22 12:22:43;;;;;;;5.00;2.47;;;24.20;99.30;;;;;;5033096;28;20539;-64
2023/06/22 12:25:09;;;;;;;5.82;3.17;;;24.20;99.20;;;;;;5055800;28;20432;-64
2023/06/22 12:27:35;;;;;;;5.45;3.05;;;24.10;99.00;;;;;;5040553;28;20028;-64